Time;durP1;ratioP1;P1;durP2;ratioP2;P2;SDS_P1;SDS_P2;PMS_P1;PMS_P2;Temp;Humidity;BMP_temperature;BMP_pressure;BME280_temperature;BME280_humidity;BME280_pressure;Samples;Min_cycle;Max_cycle;Signal;HPM_P1;HPM_P2
2021/06/01 00:01:31;;;;;;;4.40;2.20;;;;;;;7.01;70.88;96825.38;1672702;84;21069;-76
2021/06/01 00:03:57;;;;;;;4.25;2.40;;;;;;;7.01;71.15;96825.38;1672547;84;21089;-76
2021/06/01 00:06:22;;;;;;;3.15;2.15;;;;;;;7.02;70.95;96829.58;1672794;84;20970;-76
2021/06/01 00:08:48;;;;;;;4.50;2.40;;;;;;;7.03;71.02;96828.62;1673323;84;21930;-76
2021/06/01 00:11:14;;;;;;;3.85;2.22;;;;;;;7.02;70.81;96830.39;1673563;84;20969;-76
2021/06/01 00:13:41;;;;;;;2.90;2.05;;;;;;;7.00;71.16;96832.31;1673747;84;20974;-78
2021/06/01 00:16:09;;;;;;;4.50;2.83;;;;;;;6.97;71.35;96839.05;1670880;84;21006;-76
2021/06/01 00:18:36;;;;;;;4.92;2.37;;;;;;;6.93;71.29;96839.83;1672519;84;21077;-76
2021/06/01 00:21:02;;;;;;;3.58;2.40;;;;;;;6.90;71.39;96839.32;1672991;84;21310;-76
2021/06/01 00:23:27;;;;;;;2.22;1.92;;;;;;;6.88;71.52;96843.34;1672217;84;21018;-76
2021/06/01 00:25:53;;;;;;;2.77;2.10;;;;;;;6.88;71.56;96848.99;1655149;84;21085;-76
2021/06/01 00:28:19;;;;;;;4.17;2.27;;;;;;;6.88;71.27;96838.66;1673288;84;21052;-76
2021/06/01 00:30:45;;;;;;;3.45;2.33;;;;;;;6.90;71.18;96844.48;1673298;84;20970;-76
2021/06/01 00:33:11;;;;;;;3.22;2.72;;;;;;;6.90;71.56;96835.45;1677207;83;21098;-75
2021/06/01 00:35:39;;;;;;;4.03;2.50;;;;;;;6.90;71.81;96836.73;1681720;83;22160;-75
2021/06/01 00:38:05;;;;;;;3.70;2.20;;;;;;;6.89;72.16;96838.98;1673926;83;21073;-74
2021/06/01 00:40:31;;;;;;;5.60;2.50;;;;;;;6.88;72.19;96836.88;1682273;83;21064;-75
2021/06/01 00:42:57;;;;;;;4.17;2.77;;;;;;;6.87;72.09;96839.14;1683391;83;21051;-75
2021/06/01 00:45:25;;;;;;;3.60;2.30;;;;;;;6.87;71.84;96830.58;1679984;83;21329;-76
2021/06/01 00:47:51;;;;;;;5.10;2.10;;;;;;;6.88;72.09;96830.91;1681381;83;20964;-76
2021/06/01 00:50:17;;;;;;;3.72;2.35;;;;;;;6.91;72.26;96831.90;1698919;83;21053;-76
2021/06/01 00:52:43;;;;;;;3.10;2.42;;;;;;;6.91;72.57;96830.61;1699559;84;21026;-76
2021/06/01 00:55:09;;;;;;;2.90;2.40;;;;;;;6.90;72.81;96834.15;1686261;84;21075;-76
2021/06/01 00:57:35;;;;;;;4.78;3.08;;;;;;;6.88;73.07;96838.66;1674748;84;21004;-76
2021/06/01 01:00:02;;;;;;;4.50;2.70;;;;;;;6.85;73.02;96831.20;1674433;84;21296;-76
2021/06/01 01:02:27;;;;;;;3.30;2.92;;;;;;;6.82;73.07;96836.16;1680283;83;20980;-76
2021/06/01 01:04:54;;;;;;;4.40;2.62;;;;;;;6.78;73.27;96836.13;1679242;83;21397;-76
2021/06/01 01:10:03;;;;;;;3.45;2.45;;;;;;;6.78;73.44;96843.06;1569775;88;21017;-76
2021/06/01 01:12:37;;;;;;;4.67;2.90;;;;;;;6.77;73.24;96836.28;1658993;84;21077;-76
2021/06/01 01:15:05;;;;;;;4.20;2.83;;;;;;;6.76;73.49;96839.83;1674200;84;20967;-76
2021/06/01 01:17:51;;;;;;;5.10;3.10;;;;;;;6.73;73.47;96837.54;1673586;84;20967;-76
2021/06/01 01:20:35;;;;;;;6.15;3.08;;;;;;;6.68;73.58;96846.22;1671958;84;21151;-76
2021/06/01 01:23:12;;;;;;;5.22;4.30;;;;;;;6.62;73.75;96839.84;1656862;85;21371;-76
2021/06/01 01:25:50;;;;;;;4.60;3.35;;;;;;;6.59;74.01;96843.53;1672953;84;21014;-76
2021/06/01 01:29:02;;;;;;;3.87;2.80;;;;;;;6.59;73.79;96842.24;1672310;84;20979;-76
2021/06/01 01:31:49;;;;;;;4.00;3.20;;;;;;;6.61;73.81;96838.22;1661761;84;21030;-75
2021/06/01 01:34:15;;;;;;;4.05;3.40;;;;;;;6.61;73.76;96841.61;1674667;84;21011;-76
2021/06/01 01:36:41;;;;;;;3.30;2.50;;;;;;;6.61;74.07;96833.05;1654869;85;21403;-76
2021/06/01 01:39:08;;;;;;;2.98;2.50;;;;;;;6.59;74.25;96837.56;1655792;84;21048;-75
2021/06/01 01:41:36;;;;;;;5.22;3.25;;;;;;;6.54;74.36;96833.31;1653954;85;21263;-75
2021/06/01 01:44:06;;;;;;;4.25;3.12;;;;;;;6.50;74.46;96835.83;1674866;85;21320;-75
2021/06/01 01:46:54;;;;;;;4.85;2.85;;;;;;;6.45;74.34;96832.88;1655045;85;21142;-75
2021/06/01 01:49:04;;;;;;;5.55;3.52;;;;;;;6.42;74.36;96827.53;1589364;87;21300;-75
2021/06/01 01:51:38;;;;;;;6.60;3.05;;;;;;;6.43;74.62;96829.16;1602834;88;21033;-75
2021/06/01 01:54:13;;;;;;;5.78;2.77;;;;;;;6.47;74.67;96829.20;1592587;87;21359;-76
2021/06/01 01:56:42;;;;;;;3.42;3.00;;;;;;;6.50;74.46;96826.31;1609674;89;21158;-75
2021/06/01 01:59:13;;;;;;;3.47;3.08;;;;;;;6.52;74.46;96828.78;1568225;88;21037;-75
2021/06/01 02:01:41;;;;;;;4.60;2.67;;;;;;;6.51;74.42;96829.27;1612604;87;21058;-75
2021/06/01 02:04:07;;;;;;;3.58;2.55;;;;;;;6.49;74.78;96824.70;1612651;87;21000;-75
2021/06/01 02:06:33;;;;;;;3.95;2.67;;;;;;;6.44;74.82;96818.36;1592978;88;21112;-75
2021/06/01 02:09:01;;;;;;;5.72;2.72;;;;;;;6.42;74.79;96818.98;1592671;88;21466;-75
2021/06/01 02:11:27;;;;;;;3.08;2.75;;;;;;;6.42;74.93;96818.50;1613477;87;21180;-75
2021/06/01 02:14:02;;;;;;;3.45;2.87;;;;;;;6.43;74.83;96821.41;1612871;87;21120;-75
2021/06/01 02:16:27;;;;;;;5.08;3.37;;;;;;;6.47;74.77;96820.16;1612933;87;21337;-75
2021/06/01 02:18:53;;;;;;;3.90;3.25;;;;;;;6.47;74.57;96816.77;1608893;87;21018;-75
2021/06/01 02:21:47;;;;;;;5.33;3.42;;;;;;;6.46;74.54;96824.18;1580544;89;21054;-75
2021/06/01 02:24:16;;;;;;;6.12;3.10;;;;;;;6.43;74.71;96821.41;1619603;87;21013;-75
2021/06/01 02:27:05;;;;;;;5.22;4.70;;;;;;;6.41;74.94;96820.75;1623529;87;21023;-76
2021/06/01 02:29:38;;;;;;;2.92;2.60;;;;;;;6.37;75.19;96822.00;1574207;89;21050;-75
2021/06/01 02:32:06;;;;;;;3.62;2.70;;;;;;;6.38;74.99;96822.34;1590585;87;21094;-75
2021/06/01 02:34:38;;;;;;;5.03;2.62;;;;;;;6.39;74.81;96816.70;1602646;88;21020;-75
2021/06/01 02:37:04;;;;;;;3.77;3.37;;;;;;;6.41;74.95;96818.17;1604915;88;21411;-75
2021/06/01 02:39:34;;;;;;;3.10;2.77;;;;;;;6.41;74.94;96810.91;1602882;87;21005;-75
2021/06/01 02:42:00;;;;;;;3.83;2.87;;;;;;;6.42;75.08;96819.80;1631192;86;21013;-75
2021/06/01 02:44:28;;;;;;;3.87;3.47;;;;;;;6.39;74.84;96818.80;1623973;87;21022;-75
2021/06/01 02:46:54;;;;;;;5.62;3.60;;;;;;;6.36;74.95;96822.96;1667000;84;21026;-75
2021/06/01 02:49:20;;;;;;;3.77;2.87;;;;;;;6.33;75.08;96817.59;1636911;85;21319;-75
2021/06/01 02:51:46;;;;;;;4.60;2.67;;;;;;;6.36;75.12;96826.84;1674655;84;21039;-75
2021/06/01 02:54:15;;;;;;;4.12;2.80;;;;;;;6.37;75.18;96815.55;1674358;84;20987;-75
2021/06/01 02:56:41;;;;;;;3.95;2.90;;;;;;;6.38;75.11;96820.23;1675688;84;21296;-75
2021/06/01 02:59:08;;;;;;;3.50;2.90;;;;;;;6.40;75.22;96826.88;1668683;84;21110;-75
2021/06/01 03:01:35;;;;;;;5.08;3.80;;;;;;;6.42;75.18;96825.44;1646056;84;20978;-75
2021/06/01 03:04:00;;;;;;;7.90;3.17;;;;;;;6.41;74.88;96818.17;1675011;84;21300;-75
2021/06/01 03:06:28;;;;;;;3.60;3.10;;;;;;;6.41;74.61;96820.75;1677481;84;21053;-75
2021/06/01 03:08:55;;;;;;;3.52;2.95;;;;;;;6.39;74.75;96821.38;1674020;84;21064;-75
2021/06/01 03:11:24;;;;;;;4.08;2.85;;;;;;;6.39;74.59;96824.44;1669154;84;21016;-75
2021/06/01 03:13:51;;;;;;;4.12;2.60;;;;;;;6.40;74.60;96825.58;1670690;84;21094;-75
2021/06/01 03:16:17;;;;;;;5.00;3.17;;;;;;;6.44;74.45;96819.64;1670173;84;21024;-75
2021/06/01 03:18:45;;;;;;;4.37;3.10;;;;;;;6.48;74.52;96820.97;1647379;85;20980;-75
2021/06/01 03:21:13;;;;;;;3.30;2.90;;;;;;;6.48;74.50;96815.80;1647724;85;21003;-75
2021/06/01 03:23:41;;;;;;;3.80;2.90;;;;;;;6.48;74.62;96814.03;1651298;85;21333;-75
2021/06/01 03:26:06;;;;;;;4.12;3.12;;;;;;;6.47;74.90;96811.12;1646746;85;20998;-75
2021/06/01 03:28:33;;;;;;;5.40;2.87;;;;;;;6.46;75.46;96812.09;1652279;85;21336;-75
2021/06/01 03:30:59;;;;;;;3.65;3.00;;;;;;;6.46;75.38;96814.66;1650493;85;21093;-75
2021/06/01 03:33:24;;;;;;;3.75;2.80;;;;;;;6.48;75.22;96811.45;1648500;84;20983;-75
2021/06/01 03:35:50;;;;;;;3.05;2.45;;;;;;;6.53;75.09;96808.46;1628712;85;20986;-75
2021/06/01 03:38:24;;;;;;;6.00;3.65;;;;;;;6.57;75.13;96809.30;1628688;86;21403;-75
2021/06/01 03:40:50;;;;;;;;;;;;;;;6.62;75.01;96806.27;1651293;85;20955;-75
2021/06/01 03:43:16;;;;;;;4.50;3.02;;;;;;;6.65;75.19;96807.27;1639057;85;20136;-75
2021/06/01 03:45:42;;;;;;;4.12;2.90;;;;;;;6.66;75.34;96807.59;1629367;86;21077;-75
2021/06/01 03:48:08;;;;;;;5.17;3.02;;;;;;;6.66;75.37;96802.44;1602567;86;21038;-75
2021/06/01 03:50:34;;;;;;;3.87;3.08;;;;;;;6.68;75.49;96808.77;1616816;86;21438;-75
2021/06/01 03:53:03;;;;;;;5.83;3.10;;;;;;;6.70;75.56;96805.56;1636551;86;21030;-75
2021/06/01 03:55:30;;;;;;;5.83;2.75;;;;;;;6.74;75.62;96801.72;1614720;86;21280;-75
2021/06/01 03:57:56;;;;;;;3.40;2.58;;;;;;;6.80;75.55;96801.11;1635590;86;21066;-75
2021/06/01 04:00:25;;;;;;;3.85;3.05;;;;;;;6.86;75.46;96801.35;1636034;86;21030;-75
2021/06/01 04:02:52;;;;;;;3.15;2.50;;;;;;;6.89;75.44;96802.34;1625594;87;20992;-75
2021/06/01 04:05:17;;;;;;;3.40;3.10;;;;;;;6.94;75.54;96807.05;1642093;85;21432;-75
2021/06/01 04:07:48;;;;;;;3.60;3.00;;;;;;;6.98;75.73;96799.81;1613522;87;21036;-75
2021/06/01 04:10:15;;;;;;;4.90;3.42;;;;;;;7.01;75.88;96795.66;1623156;88;21041;-75
2021/06/01 04:12:41;;;;;;;5.65;2.80;;;;;;;7.05;76.13;96801.67;1643960;85;20986;-75
2021/06/01 04:15:08;;;;;;;5.75;3.15;;;;;;;7.12;76.23;96800.09;1600952;87;21012;-75
2021/06/01 04:17:34;;;;;;;4.22;2.80;;;;;;;7.21;76.17;96803.09;1635167;86;21105;-76
2021/06/01 04:20:01;;;;;;;4.80;2.83;;;;;;;7.31;76.21;96803.45;1622955;85;21008;-76
2021/06/01 04:22:26;;;;;;;4.45;3.45;;;;;;;7.37;76.07;96800.29;1649956;85;21035;-75
2021/06/01 04:24:52;;;;;;;3.20;2.35;;;;;;;7.43;76.04;96800.48;1642279;85;21126;-75
2021/06/01 04:27:18;;;;;;;6.00;3.00;;;;;;;7.48;76.01;96800.86;1648945;85;21963;-75
2021/06/01 04:29:43;;;;;;;3.42;3.10;;;;;;;7.52;76.04;96800.06;1648523;85;21071;-75
2021/06/01 04:32:09;;;;;;;4.87;2.83;;;;;;;7.56;76.21;96800.56;1649753;85;21011;-75
2021/06/01 04:34:36;;;;;;;2.90;2.60;;;;;;;7.61;76.34;96800.91;1640029;85;21317;-75
2021/06/01 04:37:02;;;;;;;3.45;2.65;;;;;;;7.67;76.40;96799.03;1649713;85;21257;-75
2021/06/01 04:39:28;;;;;;;4.83;2.75;;;;;;;7.74;76.36;96807.30;1649061;85;21032;-75
2021/06/01 04:41:53;;;;;;;4.08;2.92;;;;;;;7.83;76.43;96804.29;1639854;85;20968;-75
2021/06/01 04:44:19;;;;;;;4.45;2.45;;;;;;;7.90;76.73;96806.58;1650424;85;21016;-75
2021/06/01 04:46:46;;;;;;;4.25;3.00;;;;;;;7.95;76.83;96809.98;1650194;85;21317;-75
2021/06/01 04:49:11;;;;;;;4.47;3.77;;;;;;;7.96;76.68;96807.72;1622576;85;21023;-75
2021/06/01 04:51:37;;;;;;;3.25;2.70;;;;;;;7.99;76.74;96810.02;1636165;85;21063;-75
2021/06/01 04:54:03;;;;;;;3.00;2.65;;;;;;;8.04;76.85;96811.17;1619392;85;21090;-75
2021/06/01 04:56:30;;;;;;;4.65;3.02;;;;;;;8.09;76.84;96806.81;1646605;85;21082;-75
2021/06/01 04:58:56;;;;;;;3.70;2.70;;;;;;;8.18;76.95;96815.44;1646152;85;21003;-75
2021/06/01 05:01:25;;;;;;;3.40;3.10;;;;;;;8.27;76.94;96810.12;1646898;85;21011;-75
2021/06/01 05:03:52;;;;;;;4.33;3.62;;;;;;;8.36;76.96;96810.52;1646479;85;21109;-75
2021/06/01 05:06:21;;;;;;;4.33;3.50;;;;;;;8.48;77.05;96814.12;1636245;86;21020;-75
2021/06/01 05:08:47;;;;;;;4.28;3.42;;;;;;;8.57;77.16;96807.97;1620908;87;21022;-75
2021/06/01 05:11:15;;;;;;;7.78;4.10;;;;;;;8.63;77.43;96812.54;1653303;85;20998;-75
2021/06/01 05:13:40;;;;;;;5.50;3.77;;;;;;;8.70;77.36;96812.22;1656206;85;20971;-75
2021/06/01 05:16:06;;;;;;;4.53;4.05;;;;;;;8.81;77.38;96814.52;1656129;85;21020;-75
2021/06/01 05:18:32;;;;;;;5.75;4.33;;;;;;;8.89;76.96;96808.03;1649917;85;20986;-75
2021/06/01 05:20:58;;;;;;;7.62;4.65;;;;;;;9.00;76.68;96806.91;1643515;85;20983;-75
2021/06/01 05:23:24;;;;;;;5.95;4.85;;;;;;;9.11;76.54;96808.36;1630838;85;21041;-75
2021/06/01 05:25:50;;;;;;;7.15;5.17;;;;;;;9.21;76.33;96809.02;1602436;86;21011;-75
2021/06/01 05:28:15;;;;;;;8.40;5.75;;;;;;;9.30;76.46;96806.75;1639436;86;21000;-75
2021/06/01 05:30:48;;;;;;;6.30;4.55;;;;;;;9.37;75.65;96811.60;1626396;85;21089;-75
2021/06/01 05:35:45;;;;;;;7.65;5.03;;;;;;;9.63;75.95;96814.82;1650726;85;21106;-77
2021/06/01 05:38:09;;;;;;;7.50;4.80;;;;;;;9.74;75.87;96812.34;1650792;85;21058;-77
2021/06/01 05:40:35;;;;;;;9.33;5.33;;;;;;;9.85;75.97;96815.90;1656624;85;21023;-76
2021/06/01 05:43:00;;;;;;;10.25;6.05;;;;;;;9.93;74.96;96816.38;1656986;85;20963;-75
2021/06/01 05:45:27;;;;;;;11.10;5.95;;;;;;;10.06;73.91;96819.23;1655194;85;20994;-75
2021/06/01 05:47:53;;;;;;;9.90;6.20;;;;;;;10.14;73.51;96818.41;1645506;85;20991;-76
2021/06/01 05:50:18;;;;;;;10.55;6.65;;;;;;;10.25;72.50;96822.44;1619253;85;21029;-76
2021/06/01 05:52:44;;;;;;;7.42;5.47;;;;;;;10.34;72.60;96821.44;1628441;86;21365;-76
2021/06/01 05:55:11;;;;;;;8.45;5.70;;;;;;;10.41;72.87;96823.20;1639343;85;21062;-76
2021/06/01 05:57:36;;;;;;;7.33;4.70;;;;;;;10.46;72.52;96823.50;1637976;85;21011;-76
2021/06/01 06:00:05;;;;;;;9.65;6.30;;;;;;;10.54;73.59;96821.33;1649310;85;21347;-75
2021/06/01 06:02:31;;;;;;;9.85;6.60;;;;;;;10.61;72.53;96827.48;1647656;85;21336;-76
2021/06/01 06:04:56;;;;;;;8.95;6.00;;;;;;;10.70;72.32;96825.64;1642187;85;21032;-76
2021/06/01 06:07:22;;;;;;;6.12;4.92;;;;;;;10.77;72.62;96833.08;1641416;85;20983;-76
2021/06/01 06:09:48;;;;;;;10.13;6.78;;;;;;;10.85;73.06;96832.21;1648920;85;21319;-76
2021/06/01 06:12:14;;;;;;;9.53;6.28;;;;;;;10.90;72.18;96833.33;1648941;85;20978;-75
2021/06/01 06:14:40;;;;;;;7.67;6.05;;;;;;;10.94;72.25;96838.50;1642675;85;21015;-76
2021/06/01 06:17:09;;;;;;;9.65;6.12;;;;;;;10.95;70.35;96839.31;1650053;85;20943;-76
2021/06/01 06:19:41;;;;;;;9.95;6.17;;;;;;;10.99;70.47;96840.08;1649737;85;20978;-76
2021/06/01 06:22:03;;;;;;;9.18;6.25;;;;;;;11.00;70.64;96836.98;1622585;85;21011;-76
2021/06/01 06:24:31;;;;;;;7.70;5.78;;;;;;;10.97;69.87;96834.25;1649319;85;21010;-76
2021/06/01 06:26:58;;;;;;;10.68;6.90;;;;;;;10.99;70.56;96833.58;1627737;85;21311;-78
2021/06/01 06:29:23;;;;;;;9.08;5.85;;;;;;;11.05;71.10;96835.97;1644159;85;21097;-79
2021/06/01 06:31:49;;;;;;;10.00;6.12;;;;;;;11.12;71.00;96834.31;1632973;85;21085;-77
2021/06/01 06:34:15;;;;;;;10.58;6.05;;;;;;;11.19;70.14;96837.82;1647954;85;21387;-77
2021/06/01 06:36:41;;;;;;;9.43;7.10;;;;;;;11.23;69.93;96836.52;1645565;85;21038;-78
2021/06/01 06:39:08;;;;;;;9.13;6.15;;;;;;;11.23;69.55;96836.52;1615145;86;21041;-78
2021/06/01 06:41:34;;;;;;;10.75;6.97;;;;;;;11.26;69.70;96837.45;1626456;85;21093;-78
2021/06/01 06:44:00;;;;;;;10.98;7.78;;;;;;;11.30;70.16;96836.12;1649511;85;21106;-76
2021/06/01 06:46:36;;;;;;;10.75;7.78;;;;;;;11.31;67.92;96841.64;1624781;85;21066;-76
2021/06/01 06:48:57;;;;;;;7.50;6.47;;;;;;;11.26;68.09;96843.96;1632243;85;20983;-76
2021/06/01 06:51:26;;;;;;;10.38;7.58;;;;;;;11.24;68.81;96844.63;1618015;85;21296;-77
2021/06/01 06:53:56;;;;;;;16.52;7.90;;;;;;;11.29;68.51;96843.61;1648495;84;21320;-76
2021/06/01 06:56:25;;;;;;;12.65;7.47;;;;;;;11.38;68.47;96841.73;1649077;85;20971;-76
2021/06/01 06:58:51;;;;;;;10.55;7.50;;;;;;;11.47;67.96;96842.48;1630291;85;21011;-76
2021/06/01 07:01:17;;;;;;;12.47;7.42;;;;;;;11.56;67.44;96838.84;1651548;85;20983;-76
2021/06/01 07:03:42;;;;;;;10.78;7.65;;;;;;;11.64;67.12;96834.36;1648986;85;20971;-76
2021/06/01 07:06:08;;;;;;;9.70;7.78;;;;;;;11.68;66.71;96833.50;1648320;85;21078;-76
2021/06/01 07:08:34;;;;;;;11.43;7.97;;;;;;;11.80;67.30;96840.42;1642766;85;21353;-76
2021/06/01 07:11:00;;;;;;;9.93;7.53;;;;;;;11.96;66.57;96833.75;1624467;85;21019;-76
2021/06/01 07:13:32;;;;;;;9.83;7.30;;;;;;;12.09;66.37;96839.15;1649498;85;20947;-76
2021/06/01 07:15:57;;;;;;;12.80;8.65;;;;;;;12.25;66.18;96835.55;1600748;86;21328;-76
2021/06/01 07:18:24;;;;;;;14.40;8.05;;;;;;;12.38;65.72;96834.42;1647207;85;21071;-76
2021/06/01 07:20:49;;;;;;;12.80;8.15;;;;;;;12.50;66.37;96827.73;1617472;86;20982;-76
2021/06/01 07:23:16;;;;;;;9.93;7.83;;;;;;;12.61;65.66;96825.16;1611947;85;21053;-76
2021/06/01 07:25:42;;;;;;;11.57;7.12;;;;;;;12.67;66.18;96823.61;1643186;85;21003;-76
2021/06/01 07:28:08;;;;;;;10.85;7.25;;;;;;;12.80;66.73;96827.67;1627995;85;20959;-77
2021/06/01 07:30:34;;;;;;;10.15;7.15;;;;;;;12.92;65.17;96832.22;1629800;86;20979;-77
2021/06/01 07:33:00;;;;;;;8.38;6.62;;;;;;;13.05;64.75;96834.66;1649193;85;20986;-77
2021/06/01 07:35:26;;;;;;;8.40;6.03;;;;;;;13.16;64.30;96830.23;1627873;86;21039;-77
2021/06/01 07:37:52;;;;;;;8.03;6.10;;;;;;;13.22;62.27;96832.14;1649845;85;21062;-77
2021/06/01 07:40:20;;;;;;;6.20;5.33;;;;;;;13.35;63.46;96828.34;1649543;85;21326;-76
2021/06/01 07:42:46;;;;;;;6.75;6.05;;;;;;;13.47;62.37;96824.70;1629681;87;21051;-77
2021/06/01 07:45:13;;;;;;;7.05;5.37;;;;;;;13.51;61.73;96830.69;1649968;85;21575;-77
2021/06/01 07:47:39;;;;;;;6.58;5.03;;;;;;;13.51;62.79;96839.02;1667142;84;21353;-77
2021/06/01 07:50:06;;;;;;;8.63;5.85;;;;;;;13.52;61.87;96832.80;1661150;84;20993;-79
2021/06/01 07:52:32;;;;;;;7.65;5.22;;;;;;;13.51;61.99;96831.19;1665637;85;20995;-79
2021/06/01 07:54:57;;;;;;;10.70;5.33;;;;;;;13.50;61.95;96832.16;1653772;85;20982;-79
2021/06/01 07:57:23;;;;;;;7.37;4.95;;;;;;;13.54;61.07;96832.61;1666164;84;20986;-79
2021/06/01 07:59:49;;;;;;;4.92;4.33;;;;;;;13.55;59.64;96835.03;1668667;84;21073;-79
2021/06/01 08:02:15;;;;;;;5.53;4.78;;;;;;;13.65;60.06;96830.77;1665769;84;20990;-79
2021/06/01 08:04:40;;;;;;;6.65;4.62;;;;;;;13.79;59.98;96836.40;1665049;84;21003;-79
2021/06/01 08:07:08;;;;;;;6.75;3.77;;;;;;;13.94;59.20;96826.66;1668617;84;21002;-79
2021/06/01 08:09:36;;;;;;;7.70;5.37;;;;;;;13.99;58.10;96837.36;1663474;84;21120;-79
2021/06/01 08:12:03;;;;;;;6.95;3.62;;;;;;;14.07;56.91;96836.38;1666574;84;20962;-79
2021/06/01 08:14:30;;;;;;;3.95;3.50;;;;;;;14.23;58.82;96829.54;1650525;85;21049;-79
2021/06/01 08:16:56;;;;;;;4.65;3.35;;;;;;;14.45;58.55;96839.91;1657483;85;21081;-79
2021/06/01 08:19:30;;;;;;;5.17;3.80;;;;;;;14.69;57.88;96840.23;1643279;84;21049;-79
2021/06/01 08:22:03;;;;;;;5.12;3.98;;;;;;;14.84;55.05;96842.69;1659310;84;21030;-79
2021/06/01 08:24:25;;;;;;;5.08;3.98;;;;;;;14.97;56.07;96836.70;1668248;84;21106;-79
2021/06/01 08:26:51;;;;;;;5.75;4.30;;;;;;;15.09;57.12;96835.59;1669036;84;20997;-79
2021/06/01 08:29:16;;;;;;;5.50;3.65;;;;;;;15.20;56.64;96838.94;1669041;84;20965;-77
2021/06/01 08:31:42;;;;;;;8.08;3.72;;;;;;;15.27;58.27;96842.36;1668340;84;21010;-78
2021/06/01 08:34:08;;;;;;;5.03;4.03;;;;;;;15.21;57.24;96844.48;1669156;84;20962;-77
2021/06/01 08:36:34;;;;;;;5.72;3.70;;;;;;;15.24;56.78;96842.27;1668516;84;20970;-77
2021/06/01 08:39:02;;;;;;;4.62;3.37;;;;;;;15.15;55.23;96837.44;1668655;84;21052;-77
2021/06/01 08:41:29;;;;;;;4.83;3.60;;;;;;;15.01;56.10;96836.09;1626022;84;21005;-77
2021/06/01 08:43:55;;;;;;;6.50;3.70;;;;;;;14.96;56.85;96839.78;1631828;85;21021;-77
2021/06/01 08:46:26;;;;;;;6.10;3.37;;;;;;;14.94;56.78;96839.18;1667443;84;21401;-77
2021/06/01 08:48:59;;;;;;;7.20;3.45;;;;;;;14.91;55.59;96833.55;1646045;85;21055;-76
2021/06/01 08:51:27;;;;;;;6.90;3.50;;;;;;;14.98;53.01;96835.69;1636316;86;21003;-77
2021/06/01 08:53:57;;;;;;;7.58;3.85;;;;;;;14.96;56.07;96833.24;1647770;85;20983;-77
2021/06/01 08:56:23;;;;;;;6.78;3.60;;;;;;;15.09;54.20;96835.09;1629056;87;20987;-79
2021/06/01 08:58:50;;;;;;;9.28;4.03;;;;;;;15.19;53.40;96830.79;1624590;86;21027;-77
2021/06/01 09:01:17;;;;;;;7.33;3.85;;;;;;;15.30;55.93;96836.25;1646658;86;20982;-77
2021/06/01 09:03:56;;;;;;;6.25;4.03;;;;;;;15.45;52.54;96832.60;1649373;86;21023;-78
2021/06/01 09:06:28;;;;;;;7.70;4.67;;;;;;;15.48;52.74;96835.65;1629279;86;21089;-79
2021/06/01 09:22:04;;;;;;;5.45;3.58;;;;;;;15.82;54.01;96818.94;1646122;86;21015;-76
2021/06/01 09:24:30;;;;;;;4.10;2.62;;;;;;;15.85;53.83;96820.34;1643931;86;21035;-77
2021/06/01 09:27:24;;;;;;;3.80;2.80;;;;;;;15.95;48.99;96818.12;1629141;84;21304;-77
2021/06/01 09:29:48;;;;;;;3.37;2.52;;;;;;;15.90;48.28;96813.47;1626993;86;21011;-76
2021/06/01 09:32:16;;;;;;;4.75;2.60;;;;;;;15.87;48.46;96819.62;1649633;86;21070;-76
2021/06/01 09:34:50;;;;;;;5.65;3.27;;;;;;;15.86;48.58;96815.39;1649406;86;21130;-76
2021/06/01 09:37:30;;;;;;;4.87;2.98;;;;;;;15.88;48.25;96808.94;1647475;85;21070;-78
2021/06/01 09:40:16;;;;;;;5.92;3.12;;;;;;;15.83;50.36;96811.38;1647363;86;21394;-77
2021/06/01 09:42:50;;;;;;;6.00;2.75;;;;;;;15.87;50.93;96806.52;1639379;87;21344;-75
2021/06/01 09:45:34;;;;;;;6.12;4.12;;;;;;;15.86;51.86;96801.79;1648410;86;20989;-75
2021/06/01 09:48:04;;;;;;;4.53;3.02;;;;;;;15.93;51.16;96804.89;1648302;84;21065;-76
2021/06/01 09:50:44;;;;;;;4.53;2.40;;;;;;;16.10;49.87;96798.20;1650092;84;21049;-76
2021/06/01 09:53:24;;;;;;;5.10;2.00;;;;;;;16.17;50.60;96795.88;1667318;84;21302;-77
2021/06/01 09:55:49;;;;;;;3.67;2.15;;;;;;;16.37;47.74;96791.05;1667540;84;21022;-77
2021/06/01 09:58:34;;;;;;;5.22;2.30;;;;;;;16.57;47.72;96787.83;1668747;84;20998;-76
2021/06/01 10:01:05;;;;;;;4.67;2.27;;;;;;;16.74;49.43;96781.62;1661643;84;21393;-77
2021/06/01 10:03:48;;;;;;;3.72;2.42;;;;;;;16.70;51.32;96787.00;1655473;84;20961;-77
2021/06/01 10:06:14;;;;;;;3.33;1.75;;;;;;;16.73;48.04;96787.38;1660222;84;21389;-78
2021/06/01 10:08:49;;;;;;;2.37;1.80;;;;;;;16.77;45.11;96779.41;1647432;85;21118;-78
2021/06/01 10:11:15;;;;;;;3.02;1.62;;;;;;;16.76;46.54;96780.93;1659859;83;21308;-78
2021/06/01 10:13:41;;;;;;;3.17;2.00;;;;;;;16.78;44.90;96770.52;1684903;84;21164;-78
2021/06/01 10:16:10;;;;;;;2.98;1.52;;;;;;;16.93;45.46;96775.47;1673614;83;21323;-77
2021/06/01 10:18:45;;;;;;;1.98;1.72;;;;;;;16.98;43.63;96772.20;1688765;83;21323;-76
2021/06/01 10:21:19;;;;;;;2.42;1.80;;;;;;;17.14;44.18;96773.52;1679365;84;21268;-77
2021/06/01 10:23:47;;;;;;;3.15;2.00;;;;;;;17.36;44.49;96770.80;1679468;84;21338;-77
2021/06/01 10:26:13;;;;;;;2.58;1.67;;;;;;;17.36;43.42;96775.55;1657994;84;21038;-77
2021/06/01 10:28:43;;;;;;;3.65;2.02;;;;;;;17.33;43.90;96769.41;1664099;84;21069;-77
2021/06/01 10:31:12;;;;;;;3.08;2.00;;;;;;;17.36;44.43;96774.23;1665647;84;21383;-78
2021/06/01 10:33:51;;;;;;;3.62;2.35;;;;;;;17.49;42.95;96770.70;1668652;84;21133;-77
2021/06/01 10:44:52;;;;;;;4.10;2.35;;;;;;;17.58;43.41;96769.92;1675860;84;21307;-78
2021/06/01 10:50:37;;;;;;;2.83;2.17;;;;;;;17.96;45.52;96764.52;1622866;85;21043;-78
2021/06/01 10:53:18;;;;;;;2.62;2.35;;;;;;;18.08;43.31;96759.34;1625610;85;21037;-78
2021/06/01 10:56:01;;;;;;;2.83;2.02;;;;;;;18.32;43.89;96757.12;1623596;85;21001;-78
2021/06/01 10:58:43;;;;;;;4.58;2.35;;;;;;;18.17;43.86;96761.44;1623796;85;21017;-78
2021/06/01 11:04:18;;;;;;;4.33;2.40;;;;;;;17.85;41.81;96754.20;1661214;85;20967;-78
2021/06/01 11:07:10;;;;;;;2.70;2.15;;;;;;;17.63;43.83;96759.05;1646764;85;20993;-78
2021/06/01 11:09:37;;;;;;;2.72;2.33;;;;;;;17.47;44.40;96756.98;1662228;85;21409;-77
2021/06/01 11:12:27;;;;;;;2.85;2.02;;;;;;;17.22;42.06;96756.97;1665343;86;21309;-78
2021/06/01 11:14:57;;;;;;;3.95;2.25;;;;;;;17.20;44.28;96755.58;1665641;85;20978;-77
2021/06/01 11:17:41;;;;;;;4.62;2.70;;;;;;;17.09;41.43;96751.33;1667178;86;20982;-78
2021/06/01 11:20:17;;;;;;;4.08;3.20;;;;;;;16.91;42.21;96757.80;1644888;85;20986;-78
2021/06/01 11:22:48;;;;;;;4.03;3.20;;;;;;;16.99;41.69;96746.25;1642712;85;21057;-78
2021/06/01 11:33:33;;;;;;;3.27;2.95;;;;;;;16.75;46.17;96756.48;1640266;85;21105;-78
2021/06/01 11:36:10;;;;;;;3.80;2.20;;;;;;;16.99;44.48;96748.88;1631614;85;21016;-77
2021/06/01 11:38:52;;;;;;;3.10;2.80;;;;;;;17.32;48.27;96749.42;1633862;85;21013;-78
2021/06/01 11:44:24;;;;;;;4.47;2.90;;;;;;;17.97;45.06;96743.27;1626364;85;21029;-78
2021/06/01 11:47:27;;;;;;;3.75;2.98;;;;;;;17.87;43.17;96741.64;1640260;85;21725;-77
2021/06/01 11:52:28;;;;;;;4.85;2.80;;;;;;;17.85;44.82;96737.12;1628832;85;21337;-78
2021/06/01 11:54:53;;;;;;;4.55;2.90;;;;;;;18.10;42.87;96737.05;1636459;85;21034;-78
2021/06/01 11:57:30;;;;;;;4.15;2.90;;;;;;;18.27;41.48;96734.62;1639897;85;21120;-78
2021/06/01 12:02:47;;;;;;;4.03;2.87;;;;;;;18.79;42.27;96733.66;1622450;85;21164;-79
2021/06/01 12:05:24;;;;;;;4.17;2.72;;;;;;;19.05;41.60;96728.00;1639495;85;20986;-78
2021/06/01 12:19:00;;;;;;;3.90;2.80;;;;;;;19.14;40.82;96730.58;1624938;85;21074;-78
2021/06/01 12:21:34;;;;;;;2.92;2.62;;;;;;;19.24;41.46;96726.08;1640403;85;21339;-78
2021/06/01 12:24:08;;;;;;;3.40;3.10;;;;;;;19.34;41.88;96723.66;1640341;85;21065;-77
2021/06/01 12:27:13;;;;;;;5.47;3.20;;;;;;;19.39;39.00;96722.48;1640357;85;21050;-78
2021/06/01 12:32:28;;;;;;;4.60;3.20;;;;;;;19.32;40.42;96725.72;1638867;85;21017;-79
2021/06/01 12:46:15;;;;;;;5.10;3.50;;;;;;;19.21;44.41;96709.93;1640600;85;20982;-77
2021/06/01 13:20:04;;;;;;;5.42;3.52;;;;;;;19.23;42.37;96707.87;1658252;84;21328;-77
2021/06/01 13:38:49;;;;;;;3.83;3.40;;;;;;;19.64;39.82;96701.17;1684593;83;21057;-77
2021/06/01 13:47:04;;;;;;;3.95;2.90;;;;;;;19.82;40.69;96702.86;1685167;83;20998;-79
2021/06/01 13:49:41;;;;;;;4.62;3.47;;;;;;;20.00;43.09;96698.75;1655351;85;21018;-78
2021/06/01 13:52:16;;;;;;;4.03;3.10;;;;;;;19.89;40.47;96700.12;1674961;84;20995;-79
2021/06/01 14:00:49;;;;;;;3.45;3.15;;;;;;;19.35;39.65;96706.02;1689125;83;21409;-76